createdAt,value
2019-03-28T00:02:42.510Z,10.70
2019-03-28T00:05:28.804Z,10.60
2019-03-28T00:08:14.870Z,10.60
2019-03-28T00:11:02.329Z,10.60
2019-03-28T00:13:48.201Z,10.60
2019-03-28T00:16:34.711Z,10.60
2019-03-28T00:19:20.238Z,10.60
2019-03-28T00:22:06.344Z,10.60
2019-03-28T00:24:59.151Z,10.60
2019-03-28T00:27:45.067Z,10.60
2019-03-28T00:30:31.567Z,10.60
2019-03-28T00:33:18.393Z,10.50
2019-03-28T00:36:04.382Z,10.50
2019-03-28T00:38:50.324Z,10.60
2019-03-28T00:41:36.748Z,10.50
2019-03-28T00:44:22.720Z,10.50
2019-03-28T00:47:09.071Z,10.50
2019-03-28T00:49:55.567Z,10.50
2019-03-28T00:52:41.977Z,10.50
2019-03-28T00:55:27.843Z,10.50
2019-03-28T00:58:13.783Z,10.50
2019-03-28T01:00:59.958Z,10.50
2019-03-28T01:03:46.165Z,10.50
2019-03-28T01:06:32.271Z,10.40
2019-03-28T01:09:18.608Z,10.40
2019-03-28T01:12:04.444Z,10.40
2019-03-28T01:14:50.863Z,10.40
2019-03-28T01:17:36.803Z,10.40
2019-03-28T01:20:22.562Z,10.40
2019-03-28T01:23:07.941Z,10.40
2019-03-28T01:25:53.828Z,10.40
2019-03-28T01:28:39.641Z,10.40
2019-03-28T01:31:25.791Z,10.40
2019-03-28T01:34:12.023Z,10.40
2019-03-28T01:36:57.456Z,10.40
2019-03-28T01:39:43.349Z,10.30
2019-03-28T01:42:29.045Z,10.30
2019-03-28T01:45:15.110Z,10.30
2019-03-28T01:48:00.929Z,10.30
2019-03-28T01:50:46.992Z,10.30
2019-03-28T01:53:33.412Z,10.40
2019-03-28T01:56:19.236Z,10.30
2019-03-28T01:59:05.281Z,10.30
2019-03-28T02:01:51.750Z,10.30
2019-03-28T02:04:38.120Z,10.30
2019-03-28T02:07:25.180Z,10.30
2019-03-28T02:10:11.811Z,10.20
2019-03-28T02:12:57.828Z,10.20
2019-03-28T02:15:43.212Z,10.20
2019-03-28T02:18:29.407Z,10.20
2019-03-28T02:21:15.686Z,10.20
2019-03-28T02:24:01.472Z,10.20
2019-03-28T02:26:47.344Z,10.20
2019-03-28T02:29:33.227Z,10.20
2019-03-28T02:32:19.852Z,10.20
2019-03-28T02:35:05.670Z,10.20
2019-03-28T02:37:52.238Z,10.20
2019-03-28T02:40:38.292Z,10.20
2019-03-28T02:43:24.238Z,10.10
2019-03-28T02:46:10.482Z,10.20
2019-03-28T02:48:56.429Z,10.10
2019-03-28T02:51:43.072Z,10.10
2019-03-28T02:54:29.195Z,10.10
2019-03-28T02:57:15.281Z,10.10
2019-03-28T03:00:01.678Z,10.10
2019-03-28T03:02:47.554Z,10.10
2019-03-28T03:05:33.813Z,10.10
2019-03-28T03:08:19.393Z,10.00
2019-03-28T03:11:05.808Z,10.10
2019-03-28T03:13:51.795Z,10.10
2019-03-28T03:16:37.536Z,10.10
2019-03-28T03:19:23.430Z,10.00
2019-03-28T03:22:10.062Z,10.00
2019-03-28T03:24:58.474Z,10.00
2019-03-28T03:27:56.933Z,10.00
2019-03-28T03:30:32.320Z,10.00
2019-03-28T03:33:18.502Z,10.00
2019-03-28T03:36:04.820Z,10.00
2019-03-28T03:38:50.799Z,10.00
2019-03-28T03:41:37.126Z,10.00
2019-03-28T03:44:23.561Z,10.00
2019-03-28T03:47:09.369Z,10.00
2019-03-28T03:49:56.432Z,10.00
2019-03-28T03:52:42.752Z,10.00
2019-03-28T03:55:30.004Z,10.00
2019-03-28T03:58:17.876Z,9.90
2019-03-28T04:01:03.958Z,9.90
2019-03-28T04:03:49.963Z,9.90
2019-03-28T04:06:36.346Z,9.90
2019-03-28T04:09:22.695Z,9.90
2019-03-28T04:12:09.390Z,9.90
2019-03-28T04:14:55.183Z,9.90
2019-03-28T04:17:41.502Z,9.90
2019-03-28T04:20:27.347Z,9.90
2019-03-28T04:23:13.261Z,9.90
2019-03-28T04:25:59.665Z,9.90
2019-03-28T04:28:45.608Z,9.90
2019-03-28T04:31:31.983Z,9.90
2019-03-28T04:34:17.848Z,9.90
2019-03-28T04:37:03.693Z,9.90
2019-03-28T04:39:49.452Z,9.90
2019-03-28T04:42:35.068Z,9.80
2019-03-28T04:45:21.275Z,9.90
2019-03-28T04:48:07.200Z,9.80
2019-03-28T04:50:56.096Z,9.80
2019-03-28T04:53:42.553Z,9.80
2019-03-28T04:56:28.463Z,9.90
2019-03-28T04:59:14.837Z,9.80
2019-03-28T05:02:03.636Z,9.90
2019-03-28T05:04:49.611Z,9.80
2019-03-28T05:07:35.927Z,9.80
2019-03-28T05:10:23.311Z,9.80
2019-03-28T05:13:13.898Z,9.80
2019-03-28T05:16:00.060Z,9.80
2019-03-28T05:18:45.883Z,9.80
2019-03-28T05:21:31.900Z,9.80
2019-03-28T05:24:18.298Z,9.80
2019-03-28T05:27:04.187Z,9.80
2019-03-28T05:29:49.983Z,9.80
2019-03-28T05:32:35.985Z,9.80
2019-03-28T05:35:21.876Z,9.80
2019-03-28T05:38:07.818Z,9.80
2019-03-28T05:40:53.605Z,9.80
2019-03-28T05:43:39.560Z,9.80
2019-03-28T05:46:25.566Z,9.80
2019-03-28T05:49:11.403Z,9.80
2019-03-28T05:51:57.297Z,9.80
2019-03-28T05:54:43.639Z,9.80
2019-03-28T05:57:29.495Z,9.70
2019-03-28T06:00:16.031Z,9.70
2019-03-28T06:03:02.284Z,9.80
2019-03-28T06:05:48.519Z,9.70
2019-03-28T06:08:34.683Z,9.80
2019-03-28T06:11:20.835Z,9.80
2019-03-28T06:14:06.796Z,9.80
2019-03-28T06:16:53.292Z,9.80
2019-03-28T06:19:39.381Z,9.80
2019-03-28T06:22:25.338Z,9.80
2019-03-28T06:25:11.422Z,9.70
2019-03-28T06:27:57.377Z,9.80
2019-03-28T06:30:44.437Z,9.80
2019-03-28T06:33:30.695Z,9.80
2019-03-28T06:36:16.459Z,9.80
2019-03-28T06:39:02.935Z,9.80
2019-03-28T06:41:48.818Z,9.80
2019-03-28T06:44:35.089Z,9.80
2019-03-28T06:47:22.090Z,9.80
2019-03-28T06:50:09.347Z,9.90
2019-03-28T06:52:55.391Z,9.80
2019-03-28T06:55:41.447Z,9.80
2019-03-28T06:58:27.286Z,9.80
2019-03-28T07:01:13.238Z,9.80
2019-03-28T07:03:59.204Z,9.80
2019-03-28T07:06:45.139Z,9.80
2019-03-28T07:09:31.599Z,9.80
2019-03-28T07:12:18.392Z,9.90
2019-03-28T07:15:04.737Z,9.90
2019-03-28T07:17:51.105Z,9.90
2019-03-28T07:20:37.934Z,9.90
2019-03-28T07:23:24.043Z,10.00
2019-03-28T07:26:10.680Z,10.00
2019-03-28T07:28:57.003Z,10.00
2019-03-28T07:31:43.219Z,10.10
2019-03-28T07:34:29.518Z,10.10
2019-03-28T07:37:15.397Z,10.10
2019-03-28T07:40:01.772Z,10.20
2019-03-28T07:42:48.285Z,10.20
2019-03-28T07:45:34.746Z,10.20
2019-03-28T07:48:21.260Z,10.20
2019-03-28T07:51:07.262Z,10.20
2019-03-28T07:53:53.271Z,10.30
2019-03-28T07:56:39.167Z,10.30
2019-03-28T07:59:25.596Z,10.30
2019-03-28T08:02:11.865Z,10.30
2019-03-28T08:04:57.824Z,10.40
2019-03-28T08:07:45.732Z,10.40
2019-03-28T08:10:31.647Z,10.50
2019-03-28T08:13:16.961Z,10.50
2019-03-28T08:16:02.948Z,10.50
2019-03-28T08:18:48.703Z,10.60
2019-03-28T08:21:34.863Z,10.60
2019-03-28T08:24:21.023Z,10.60
2019-03-28T08:27:07.375Z,10.70
2019-03-28T08:29:53.353Z,10.70
2019-03-28T08:32:40.097Z,10.80
2019-03-28T08:35:26.512Z,10.80
2019-03-28T08:38:12.530Z,10.80
2019-03-28T08:40:58.509Z,10.90
2019-03-28T08:43:45.303Z,10.90
2019-03-28T08:46:31.542Z,11.00
2019-03-28T08:49:17.818Z,11.00
2019-03-28T08:52:04.279Z,11.00
2019-03-28T08:54:50.109Z,11.00
2019-03-28T08:57:36.431Z,11.00
2019-03-28T09:00:33.061Z,11.00
2019-03-28T09:03:10.147Z,11.00
2019-03-28T09:05:56.188Z,11.10
2019-03-28T09:08:42.404Z,11.10
2019-03-28T09:11:28.520Z,11.10
2019-03-28T09:14:14.896Z,11.10
2019-03-28T09:17:00.892Z,11.10
2019-03-28T09:19:46.700Z,11.10
2019-03-28T09:22:32.222Z,11.20
2019-03-28T09:25:18.139Z,11.20
2019-03-28T09:28:04.064Z,11.20
2019-03-28T09:30:50.584Z,11.20
2019-03-28T09:33:36.789Z,11.30
2019-03-28T09:36:22.579Z,11.30
2019-03-28T09:39:08.360Z,11.40
2019-03-28T09:41:54.101Z,11.40
2019-03-28T09:44:43.047Z,11.40
2019-03-28T09:47:30.297Z,11.40
2019-03-28T09:50:16.459Z,11.40
2019-03-28T09:53:02.297Z,11.50
2019-03-28T09:55:48.168Z,11.50
2019-03-28T09:58:34.366Z,11.50
2019-03-28T10:01:19.753Z,11.60
2019-03-28T10:04:06.574Z,11.50
2019-03-28T10:06:52.914Z,11.60
2019-03-28T10:09:39.220Z,11.60
2019-03-28T10:12:25.227Z,11.60
2019-03-28T10:15:11.631Z,11.60
2019-03-28T10:17:59.734Z,11.60
2019-03-28T10:20:45.471Z,11.60
2019-03-28T10:23:31.264Z,11.70
2019-03-28T10:26:17.410Z,11.70
2019-03-28T10:29:03.146Z,11.70
2019-03-28T10:31:52.111Z,11.70
2019-03-28T10:34:38.028Z,11.80
2019-03-28T10:37:23.735Z,11.80
2019-03-28T10:40:09.708Z,11.80
2019-03-28T10:42:55.683Z,11.80
2019-03-28T10:45:41.725Z,11.80
2019-03-28T10:48:27.719Z,11.90
2019-03-28T10:51:13.671Z,11.90
2019-03-28T10:53:59.600Z,11.90
2019-03-28T10:56:52.001Z,11.90
2019-03-28T10:59:33.884Z,12.00
2019-03-28T11:02:19.732Z,12.00
2019-03-28T11:05:05.811Z,12.00
2019-03-28T11:07:52.126Z,12.00
2019-03-28T11:10:38.119Z,12.00
2019-03-28T11:13:24.341Z,12.10
2019-03-28T11:16:10.741Z,12.00
2019-03-28T11:18:57.049Z,12.10
2019-03-28T11:21:43.167Z,12.10
2019-03-28T11:24:28.952Z,12.10
2019-03-28T11:27:14.435Z,12.10
2019-03-28T11:30:00.425Z,12.10
2019-03-28T11:32:46.499Z,12.10
2019-03-28T11:35:32.885Z,12.10
2019-03-28T11:38:19.103Z,12.10
2019-03-28T11:41:05.208Z,12.10
2019-03-28T11:43:51.073Z,12.10
2019-03-28T11:46:37.377Z,12.10
2019-03-28T11:49:23.979Z,12.20
2019-03-28T11:52:09.855Z,12.20
2019-03-28T11:54:56.423Z,12.20
2019-03-28T11:57:42.504Z,12.20
2019-03-28T12:00:29.491Z,12.20
2019-03-28T12:03:15.486Z,12.20
2019-03-28T12:06:01.900Z,12.20
2019-03-28T12:08:48.177Z,12.20
2019-03-28T12:11:33.572Z,12.20
2019-03-28T12:14:19.400Z,12.30
2019-03-28T12:17:05.176Z,12.30
2019-03-28T12:19:52.230Z,12.30
2019-03-28T12:22:41.474Z,12.30
2019-03-28T12:25:27.243Z,12.30
2019-03-28T12:28:12.627Z,12.30
2019-03-28T12:30:58.477Z,12.40
2019-03-28T12:33:44.222Z,12.40
2019-03-28T12:36:30.345Z,12.40
2019-03-28T12:39:16.552Z,12.40
2019-03-28T12:42:02.486Z,12.40
2019-03-28T12:44:57.034Z,12.40
2019-03-28T12:47:42.327Z,12.50
2019-03-28T12:50:24.338Z,12.50
2019-03-28T12:53:12.617Z,12.50
2019-03-28T12:55:58.857Z,12.50
2019-03-28T12:58:44.714Z,12.50
2019-03-28T13:01:30.161Z,12.60
2019-03-28T13:04:16.511Z,12.60
2019-03-28T13:07:02.697Z,12.60
2019-03-28T13:09:49.312Z,12.60
2019-03-28T13:12:38.191Z,12.60
2019-03-28T13:15:34.898Z,12.70
2019-03-28T13:18:21.570Z,12.70
2019-03-28T13:21:13.833Z,12.60
2019-03-28T13:23:57.731Z,12.70
2019-03-28T13:26:46.119Z,12.70
2019-03-28T13:29:32.545Z,12.70
2019-03-28T13:32:23.106Z,12.70
2019-03-28T13:35:09.495Z,12.70
2019-03-28T13:37:58.138Z,12.80
2019-03-28T13:40:44.789Z,12.80
2019-03-28T13:43:32.137Z,12.80
2019-03-28T13:46:22.602Z,12.80
2019-03-28T13:49:08.666Z,12.80
2019-03-28T13:51:55.082Z,12.80
2019-03-28T13:54:41.704Z,12.80
2019-03-28T13:57:27.936Z,12.90
2019-03-28T14:00:14.790Z,12.90
2019-03-28T14:03:01.805Z,12.90
2019-03-28T14:05:47.889Z,13.00
2019-03-28T14:08:33.781Z,13.00
2019-03-28T14:11:20.613Z,13.00
2019-03-28T14:14:06.697Z,13.00
2019-03-28T14:16:53.341Z,13.10
2019-03-28T14:19:39.827Z,13.10
2019-03-28T14:22:26.713Z,13.10
2019-03-28T14:25:12.660Z,13.10
2019-03-28T14:27:59.097Z,13.20
2019-03-28T14:30:44.857Z,13.20
2019-03-28T14:33:31.211Z,13.20
2019-03-28T14:36:18.516Z,13.20
2019-03-28T14:39:06.386Z,13.20
2019-03-28T14:41:52.586Z,13.30
2019-03-28T14:44:38.541Z,13.30
2019-03-28T14:47:24.426Z,13.30
2019-03-28T14:50:10.566Z,13.30
2019-03-28T14:52:56.923Z,13.30
2019-03-28T14:55:43.030Z,13.40
2019-03-28T14:58:29.034Z,13.50
2019-03-28T15:01:14.839Z,13.50
2019-03-28T15:04:00.572Z,13.40
2019-03-28T15:06:46.570Z,13.50
2019-03-28T15:09:32.555Z,13.50
2019-03-28T15:12:18.322Z,13.50
2019-03-28T15:15:04.436Z,13.60
2019-03-28T15:17:50.470Z,13.60
2019-03-28T15:20:36.588Z,13.60
2019-03-28T15:23:22.393Z,13.70
2019-03-28T15:26:08.336Z,13.70
2019-03-28T15:28:54.218Z,13.70
2019-03-28T15:31:40.045Z,13.70
2019-03-28T15:34:25.947Z,13.80
2019-03-28T15:37:11.818Z,13.80
2019-03-28T15:39:57.730Z,13.80
2019-03-28T15:42:44.495Z,13.80
2019-03-28T15:45:30.967Z,13.80
2019-03-28T15:48:16.824Z,13.80
2019-03-28T15:51:02.467Z,13.80
2019-03-28T15:53:48.266Z,13.80
2019-03-28T15:56:34.084Z,13.80
2019-03-28T15:59:19.920Z,13.80
2019-03-28T16:02:05.862Z,13.80
2019-03-28T16:04:51.133Z,13.80
2019-03-28T16:07:37.155Z,13.80
2019-03-28T16:10:23.119Z,13.80
2019-03-28T16:13:08.980Z,13.80
2019-03-28T16:15:54.999Z,13.80
2019-03-28T16:18:40.300Z,13.80
2019-03-28T16:21:26.933Z,13.80
2019-03-28T16:24:12.937Z,13.80
2019-03-28T16:26:59.227Z,13.80
2019-03-28T16:29:44.949Z,13.70
2019-03-28T16:32:30.875Z,13.70
2019-03-28T16:35:16.843Z,13.70
2019-03-28T16:38:02.714Z,13.70
2019-03-28T16:40:48.634Z,13.70
2019-03-28T16:43:34.516Z,13.60
2019-03-28T16:46:20.248Z,13.60
2019-03-28T16:49:06.396Z,13.60
2019-03-28T16:51:52.286Z,13.60
2019-03-28T16:54:38.198Z,13.60
2019-03-28T16:57:24.068Z,13.50
2019-03-28T17:00:10.717Z,13.50
2019-03-28T17:02:56.551Z,13.50
2019-03-28T17:05:42.330Z,13.50
2019-03-28T17:08:28.459Z,13.50
2019-03-28T17:11:14.681Z,13.40
2019-03-28T17:14:00.569Z,13.40
2019-03-28T17:16:46.424Z,13.40
2019-03-28T17:19:32.286Z,13.40
2019-03-28T17:22:18.249Z,13.30
2019-03-28T17:25:03.791Z,13.30
2019-03-28T17:27:49.457Z,13.30
2019-03-28T17:30:35.453Z,13.20
2019-03-28T17:33:21.492Z,13.20
2019-03-28T17:36:07.309Z,13.20
2019-03-28T17:38:52.681Z,13.20
2019-03-28T17:41:38.599Z,13.10
2019-03-28T17:44:24.363Z,13.10
2019-03-28T17:47:10.626Z,13.10
2019-03-28T17:49:56.731Z,13.00
2019-03-28T17:52:42.688Z,13.00
2019-03-28T17:55:29.722Z,13.00
2019-03-28T17:58:15.961Z,13.00
2019-03-28T18:01:01.796Z,12.90
2019-03-28T18:03:47.677Z,12.90
2019-03-28T18:06:34.885Z,12.90
2019-03-28T18:09:21.427Z,12.80
2019-03-28T18:12:07.101Z,12.80
2019-03-28T18:14:53.025Z,12.80
2019-03-28T18:17:38.498Z,12.70
2019-03-28T18:20:24.339Z,12.70
2019-03-28T18:23:10.201Z,12.70
2019-03-28T18:25:55.988Z,12.70
2019-03-28T18:28:41.929Z,12.60
2019-03-28T18:31:27.255Z,12.60
2019-03-28T18:34:13.238Z,12.50
2019-03-28T18:36:58.618Z,12.50
2019-03-28T18:39:44.603Z,12.50
2019-03-28T18:42:31.035Z,12.50
2019-03-28T18:45:17.976Z,12.40
2019-03-28T18:48:03.944Z,12.40
2019-03-28T18:50:49.771Z,12.30
2019-03-28T18:53:36.265Z,12.30
2019-03-28T18:56:22.618Z,12.30
2019-03-28T18:59:10.181Z,12.20
2019-03-28T19:01:56.071Z,12.20
2019-03-28T19:04:42.143Z,12.20
2019-03-28T19:07:29.285Z,12.10
2019-03-28T19:10:15.481Z,12.10
2019-03-28T19:13:04.560Z,12.00
2019-03-28T19:15:49.984Z,12.00
2019-03-28T19:18:36.434Z,11.90
2019-03-28T19:21:23.889Z,11.80
2019-03-28T19:24:11.675Z,11.80
2019-03-28T19:26:57.945Z,11.80
2019-03-28T19:29:44.515Z,11.70
2019-03-28T19:32:30.877Z,11.60
2019-03-28T19:35:16.165Z,11.60
2019-03-28T19:38:02.152Z,11.60
2019-03-28T19:40:48.037Z,11.50
2019-03-28T19:43:33.972Z,11.50
2019-03-28T19:46:19.984Z,11.40
2019-03-28T19:49:05.940Z,11.40
2019-03-28T19:51:51.838Z,11.40
2019-03-28T19:54:37.955Z,11.40
2019-03-28T19:57:26.321Z,11.30
2019-03-28T20:00:12.042Z,11.30
2019-03-28T20:03:00.390Z,11.20
2019-03-28T20:05:47.938Z,11.20
2019-03-28T20:08:33.884Z,11.10
2019-03-28T20:11:20.353Z,11.00
2019-03-28T20:14:06.565Z,11.10
2019-03-28T20:16:53.804Z,11.00
2019-03-28T20:19:39.977Z,10.90
2019-03-28T20:22:28.333Z,10.80
2019-03-28T20:25:17.248Z,10.80
2019-03-28T20:28:03.310Z,10.70
2019-03-28T20:30:49.986Z,10.60
2019-03-28T20:33:38.076Z,10.60
2019-03-28T20:36:37.013Z,10.50
2019-03-28T20:39:11.809Z,10.50
2019-03-28T20:41:57.889Z,10.50
2019-03-28T20:44:44.747Z,10.40
2019-03-28T20:47:31.187Z,10.40
2019-03-28T20:50:17.923Z,10.30
2019-03-28T20:53:04.783Z,10.30
2019-03-28T20:55:53.519Z,10.30
2019-03-28T20:58:39.814Z,10.20
2019-03-28T21:01:26.084Z,10.20
2019-03-28T21:04:11.843Z,10.20
2019-03-28T21:06:57.854Z,10.20
2019-03-28T21:09:43.686Z,10.20
2019-03-28T21:12:29.384Z,10.10
2019-03-28T21:15:15.341Z,10.10
2019-03-28T21:18:01.300Z,10.10
2019-03-28T21:20:47.813Z,10.10
2019-03-28T21:23:33.498Z,10.10
2019-03-28T21:26:20.040Z,10.10
2019-03-28T21:29:11.631Z,10.10
2019-03-28T21:32:00.101Z,10.10
2019-03-28T21:34:46.999Z,10.00
2019-03-28T21:37:34.465Z,10.10
2019-03-28T21:40:20.471Z,10.00
2019-03-28T21:43:07.910Z,10.00
2019-03-28T21:45:55.336Z,10.00
2019-03-28T21:48:45.089Z,10.00
2019-03-28T21:51:33.189Z,10.00
2019-03-28T21:54:19.388Z,9.90
2019-03-28T21:57:05.361Z,9.90
2019-03-28T21:59:51.630Z,9.90
2019-03-28T22:02:37.720Z,9.80
2019-03-28T22:05:28.483Z,9.80
2019-03-28T22:08:15.314Z,9.70
2019-03-28T22:11:02.031Z,9.70
2019-03-28T22:13:48.476Z,9.70
2019-03-28T22:16:35.361Z,9.60
2019-03-28T22:19:26.083Z,9.60
2019-03-28T22:22:14.920Z,9.50
2019-03-28T22:25:02.412Z,9.50
2019-03-28T22:27:51.451Z,9.50
2019-03-28T22:30:38.862Z,9.40
2019-03-28T22:33:27.845Z,9.40
2019-03-28T22:36:24.410Z,9.40
2019-03-28T22:39:10.297Z,9.40
2019-03-28T22:41:58.179Z,9.30
2019-03-28T22:44:44.762Z,9.30
2019-03-28T22:47:34.795Z,9.30
2019-03-28T22:50:18.950Z,9.30
2019-03-28T22:53:04.907Z,9.20
2019-03-28T22:55:50.580Z,9.20
2019-03-28T22:58:36.568Z,9.10
2019-03-28T23:01:24.601Z,9.10
2019-03-28T23:04:10.604Z,9.00
2019-03-28T23:07:10.114Z,9.00
2019-03-28T23:09:45.260Z,8.90
2019-03-28T23:12:34.096Z,8.90
2019-03-28T23:15:22.110Z,8.90
2019-03-28T23:18:08.802Z,8.80
2019-03-28T23:20:54.859Z,8.80
2019-03-28T23:23:41.131Z,8.80
2019-03-28T23:26:27.362Z,8.70
2019-03-28T23:29:14.048Z,8.70
2019-03-28T23:32:00.115Z,8.70
2019-03-28T23:34:46.062Z,8.60
2019-03-28T23:37:32.017Z,8.60
2019-03-28T23:40:18.628Z,8.50
2019-03-28T23:43:04.556Z,8.50
2019-03-28T23:45:50.826Z,8.50
2019-03-28T23:48:39.526Z,8.40
2019-03-28T23:51:25.826Z,8.40
2019-03-28T23:54:12.748Z,8.30
2019-03-28T23:56:58.901Z,8.30
2019-03-28T23:59:44.742Z,8.30
